Terminal Aerodrome Forecast
Issued by NWS

Home | Current Version | Previous Version | Text Only | Print | Product List | Glossary On
Versions: 1 2 3 4 5 6 7 8 9 10 11 12 13 14 15 16 17 18 19 20 21 22 23 24 25
000
FTUS46 KSGX 211929 AAA
TAFSAN
TAF AMD
KSAN 211929Z 2119/2224 19008KT P6SM VCSH SCT035 BKN040
     FM212100 26011KT P6SM VCSH BKN035
     FM220200 29005KT P6SM SCT035 BKN090
     FM221500 VRB05KT P6SM VCSH BKN035
     FM222000 25011G18KT P6SM SCT035=

USA.gov is the U.S. government's official web portal to all federal, state and local government web resources and services.